Time;durP1;ratioP1;P1;durP2;ratioP2;P2;SDS_P1;SDS_P2;PMS_P1;PMS_P2;Temp;Humidity;BMP_temperature;BMP_pressure;BME280_temperature;BME280_humidity;BME280_pressure;Samples;Min_cycle;Max_cycle;Signal;HPM_P1;HPM_P2
2023/01/28 00:01:05;;;;;;;;;34.25;25.00;;;;;8.27;100.00;102419.53;5022981;28;45472;-80
2023/01/28 00:03:31;;;;;;;;;24.00;13.00;;;;;8.16;100.00;102392.25;5033529;28;45701;-80
2023/01/28 00:06:08;;;;;;;;;25.25;15.75;;;;;8.56;100.00;102437.59;5011348;28;45528;-80
2023/01/28 00:08:34;;;;;;;;;35.25;30.50;;;;;8.09;100.00;102407.09;5013281;28;45370;-79
2023/01/28 00:11:01;;;;;;;;;31.50;28.25;;;;;8.36;100.00;102435.25;5012132;28;45446;-80
2023/01/28 00:13:27;;;;;;;;;28.00;21.25;;;;;8.18;100.00;102388.44;5019991;28;46379;-80
2023/01/28 00:16:01;;;;;;;;;34.50;24.75;;;;;8.26;100.00;102428.59;5018942;28;45216;-80
2023/01/28 00:18:28;;;;;;;;;23.25;18.00;;;;;8.66;100.00;102442.47;5011670;28;45424;-81
2023/01/28 00:21:02;;;;;;;;;38.75;30.00;;;;;8.68;100.00;102435.13;5016924;28;45567;-80
2023/01/28 00:23:30;;;;;;;;;30.75;28.25;;;;;8.72;100.00;102447.50;5011329;28;46600;-81
2023/01/28 00:26:00;;;;;;;;;31.50;23.75;;;;;8.50;100.00;102443.41;5012960;28;45332;-80
2023/01/28 00:28:25;;;;;;;;;28.25;23.00;;;;;8.48;100.00;102417.38;5006778;28;45710;-80
2023/01/28 00:30:51;;;;;;;;;42.75;33.50;;;;;8.38;100.00;102416.22;5022737;28;45469;-81
2023/01/28 00:33:16;;;;;;;;;35.00;28.00;;;;;8.31;100.00;102429.25;5014160;28;45283;-80
2023/01/28 00:35:42;;;;;;;;;44.00;31.50;;;;;7.90;100.00;102371.25;5020140;28;45374;-81
2023/01/28 00:38:08;;;;;;;;;33.25;26.00;;;;;8.45;100.00;102437.41;5020976;28;45375;-81
2023/01/28 00:40:34;;;;;;;;;32.50;24.50;;;;;8.29;100.00;102431.13;5010245;28;45268;-80
2023/01/28 00:42:59;;;;;;;;;31.00;28.75;;;;;8.39;100.00;102431.50;5012657;28;45981;-81
2023/01/28 00:45:25;;;;;;;;;34.75;29.50;;;;;8.58;100.00;102424.84;5018082;28;45281;-81
2023/01/28 00:47:50;;;;;;;;;44.25;28.50;;;;;8.47;100.00;102443.63;5024978;28;45613;-81
2023/01/28 00:50:16;;;;;;;;;38.75;26.00;;;;;8.50;100.00;102418.16;5014888;28;45426;-81
2023/01/28 00:52:41;;;;;;;;;28.00;28.00;;;;;8.78;100.00;102429.00;5017410;28;45687;-81
2023/01/28 00:55:07;;;;;;;;;35.00;31.75;;;;;8.34;100.00;102377.59;5019660;28;45503;-80
2023/01/28 00:57:32;;;;;;;;;34.00;26.25;;;;;8.30;100.00;102424.75;5019519;28;45313;-80
2023/01/28 00:59:59;;;;;;;;;28.50;20.75;;;;;8.14;100.00;102369.78;5019361;28;45409;-81
2023/01/28 01:02:25;;;;;;;;;30.50;26.50;;;;;8.20;100.00;102396.50;5018432;28;47225;-81
2023/01/28 01:04:57;;;;;;;;;27.25;18.25;;;;;8.49;100.00;102447.06;5014718;28;45340;-81
2023/01/28 01:07:40;;;;;;;;;29.00;21.00;;;;;7.89;100.00;102354.16;5020092;28;45540;-81
2023/01/28 01:10:10;;;;;;;;;35.25;26.25;;;;;8.47;100.00;102451.75;5018566;28;45466;-81
2023/01/28 01:12:36;;;;;;;;;38.25;31.00;;;;;8.14;100.00;102399.56;5015963;28;45555;-81
2023/01/28 01:15:03;;;;;;;;;34.25;29.75;;;;;8.07;100.00;102403.63;5017347;28;45348;-81
2023/01/28 01:17:30;;;;;;;;;31.50;25.00;;;;;8.11;100.00;102410.56;5017983;28;45278;-81
2023/01/28 01:19:56;;;;;;;;;30.25;21.75;;;;;8.02;100.00;102375.97;5017119;28;45246;-81
2023/01/28 01:22:22;;;;;;;;;31.33;29.67;;;;;8.58;100.00;102451.06;5013186;28;45536;-80
2023/01/28 01:24:47;;;;;;;;;31.50;23.00;;;;;8.67;100.00;102465.88;5015175;28;45483;-79
2023/01/28 01:27:13;;;;;;;;;28.33;25.33;;;;;8.52;100.00;102456.88;5008380;28;45516;-80
2023/01/28 01:29:38;;;;;;;;;28.50;22.00;;;;;8.47;100.00;102454.44;5009299;28;45618;-80
2023/01/28 01:32:04;;;;;;;;;24.67;18.67;;;;;8.27;100.00;102434.91;5019631;28;47180;-80
2023/01/28 01:34:29;;;;;;;;;26.75;21.75;;;;;8.25;100.00;102421.47;5018218;28;45411;-79
2023/01/28 01:36:55;;;;;;;;;30.00;26.50;;;;;8.35;100.00;102427.22;5021888;28;45354;-79
2023/01/28 01:39:20;;;;;;;;;31.00;26.50;;;;;8.30;100.00;102418.47;5017759;28;45462;-80
2023/01/28 01:41:45;;;;;;;;;26.25;20.50;;;;;8.43;100.00;102452.00;5019948;28;46665;-79
2023/01/28 01:44:49;;;;;;;;;29.25;24.00;;;;;8.55;100.00;102462.94;5019124;28;45451;-79
2023/01/28 01:47:16;;;;;;;;;28.25;25.75;;;;;8.50;100.00;102464.19;5011357;28;45433;-79
2023/01/28 01:49:42;;;;;;;;;25.00;19.00;;;;;8.31;100.00;102448.22;5011283;28;45296;-79
2023/01/28 01:52:13;;;;;;;;;31.00;24.00;;;;;8.48;100.00;102475.13;5017827;28;45583;-80
2023/01/28 01:54:43;;;;;;;;;30.25;26.25;;;;;8.23;100.00;102423.38;5012523;28;45391;-80
2023/01/28 01:57:13;;;;;;;;;27.25;25.00;;;;;8.50;100.00;102448.81;5019109;28;45382;-79
2023/01/28 01:59:41;;;;;;;;;36.50;29.00;;;;;8.62;100.00;102452.59;5009519;28;45475;-79
2023/01/28 02:02:08;;;;;;;;;19.75;14.25;;;;;8.47;100.00;102421.94;5009321;28;47225;-79
2023/01/28 02:04:38;;;;;;;;;27.50;23.00;;;;;8.47;100.00;102438.19;5007552;28;45537;-80
2023/01/28 02:07:05;;;;;;;;;26.00;23.67;;;;;8.66;100.00;102474.97;5010244;28;45323;-79
2023/01/28 02:09:37;;;;;;;;;32.75;24.50;;;;;8.45;100.00;102469.91;5014182;28;45953;-79
2023/01/28 02:12:09;;;;;;;;;25.00;23.75;;;;;8.28;100.00;102472.72;5007720;28;47928;-80
2023/01/28 02:14:40;;;;;;;;;20.75;15.00;;;;;8.16;100.00;102463.50;5017045;28;45525;-79
2023/01/28 02:17:06;;;;;;;;;37.75;29.50;;;;;8.10;100.00;102422.38;5008148;28;45426;-79
2023/01/28 02:19:56;;;;;;;;;28.00;23.00;;;;;7.84;100.00;102404.97;5015819;28;45417;-79
2023/01/28 02:22:39;;;;;;;;;32.33;25.67;;;;;8.44;100.00;102476.28;5004914;28;45471;-79
2023/01/28 02:25:36;;;;;;;;;28.25;19.25;;;;;8.43;100.00;102463.72;5015440;28;45252;-80
2023/01/28 02:28:07;;;;;;;;;26.67;18.67;;;;;8.28;100.00;102463.72;5007573;28;45497;-80
2023/01/28 02:30:38;;;;;;;;;26.67;21.33;;;;;8.26;100.00;102439.44;5015250;28;45353;-79
2023/01/28 02:33:17;;;;;;;;;37.25;30.25;;;;;7.99;100.00;102414.91;5016168;28;48077;-80
2023/01/28 02:35:53;;;;;;;;;31.50;25.75;;;;;8.17;100.00;102446.31;5017190;28;45812;-79
2023/01/28 02:38:30;;;;;;;;;29.50;18.75;;;;;8.00;100.00;102432.88;5017442;28;45414;-79
2023/01/28 02:41:04;;;;;;;;;34.00;23.25;;;;;8.24;100.00;102457.63;5017567;28;45308;-80
2023/01/28 02:43:40;;;;;;;;;26.25;18.75;;;;;7.61;100.00;102417.13;5007519;28;46957;-80
2023/01/28 02:48:55;;;;;;;;;30.50;28.25;;;;;8.00;100.00;102450.97;5019609;28;45483;-80
2023/01/28 02:51:50;;;;;;;;;36.50;28.25;;;;;8.16;100.00;102468.03;5017228;28;45655;-80
2023/01/28 02:54:32;;;;;;;;;21.75;17.00;;;;;8.19;100.00;102463.31;5014897;28;47804;-80
2023/01/28 02:57:36;;;;;;;;;23.50;19.75;;;;;8.23;100.00;102466.72;5013394;28;45389;-80
2023/01/28 03:00:22;;;;;;;;;35.25;21.75;;;;;8.31;100.00;102469.00;5018378;28;45520;-80
2023/01/28 03:03:27;;;;;;;;;26.50;23.75;;;;;8.25;100.00;102464.78;5033982;28;45285;-80
2023/01/28 03:06:05;;;;;;;;;27.25;21.75;;;;;7.99;100.00;102431.13;5014931;28;45426;-80
2023/01/28 03:36:58;;;;;;;;;25.25;23.25;;;;;7.98;100.00;102452.88;5024734;28;45415;-79
2023/01/28 03:39:27;;;;;;;;;28.25;21.50;;;;;7.79;100.00;102469.31;5015012;28;45569;-80
2023/01/28 03:42:13;;;;;;;;;35.00;28.75;;;;;7.98;100.00;102461.00;5023519;28;45240;-80
2023/01/28 03:44:48;;;;;;;;;38.25;30.25;;;;;8.12;100.00;102507.06;5014272;28;45469;-80
2023/01/28 03:47:14;;;;;;;;;29.00;26.25;;;;;8.20;100.00;102521.03;5023416;28;45675;-79
2023/01/28 03:49:44;;;;;;;;;38.00;33.75;;;;;7.99;100.00;102484.41;5014353;28;46448;-79
2023/01/28 03:52:11;;;;;;;;;32.00;28.50;;;;;7.78;100.00;102451.34;5012932;28;45518;-79
2023/01/28 03:54:36;;;;;;;;;23.00;22.50;;;;;7.94;100.00;102473.84;5013775;28;45355;-79
2023/01/28 03:57:02;;;;;;;;;28.50;26.00;;;;;8.08;100.00;102494.69;5019445;28;45297;-79
2023/01/28 03:59:28;;;;;;;;;33.00;26.50;;;;;8.26;100.00;102492.72;5010993;28;45778;-79
2023/01/28 04:01:54;;;;;;;;;27.25;22.75;;;;;8.14;100.00;102488.91;5012499;28;45232;-79
2023/01/28 04:04:23;;;;;;;;;39.25;28.75;;;;;7.98;100.00;102471.81;5011631;28;45497;-79
2023/01/28 04:06:53;;;;;;;;;22.50;21.75;;;;;8.10;100.00;102495.47;5012448;28;45515;-79
2023/01/28 04:09:22;;;;;;;;;35.50;28.25;;;;;7.90;100.00;102457.84;5035235;28;47006;-79
2023/01/28 04:11:49;;;;;;;;;24.50;23.00;;;;;8.29;100.00;102520.50;5012729;28;45395;-80
2023/01/28 04:14:15;;;;;;;;;32.00;25.75;;;;;8.26;100.00;102523.38;5015779;28;45471;-79
2023/01/28 04:16:41;;;;;;;;;37.00;31.75;;;;;7.83;100.00;102458.22;5012657;28;45631;-79
2023/01/28 04:19:14;;;;;;;;;44.00;31.00;;;;;8.20;100.00;102478.59;5012305;28;46319;-79
2023/01/28 04:21:40;;;;;;;;;26.75;26.75;;;;;8.34;100.00;102514.84;5012140;28;45276;-79
2023/01/28 04:24:06;;;;;;;;;37.00;28.50;;;;;8.25;100.00;102534.31;5007195;28;45364;-80
2023/01/28 04:26:31;;;;;;;;;33.25;23.00;;;;;8.19;100.00;102503.91;5020334;28;45297;-79
2023/01/28 04:28:57;;;;;;;;;30.00;27.00;;;;;8.19;100.00;102519.28;5015543;28;45311;-80
2023/01/28 04:31:22;;;;;;;;;29.25;25.25;;;;;8.23;100.00;102526.28;5022700;28;45666;-79
2023/01/28 04:33:48;;;;;;;;;22.75;22.75;;;;;7.86;100.00;102489.66;5019458;28;45375;-79
2023/01/28 04:36:15;;;;;;;;;41.75;28.25;;;;;7.65;100.00;102472.81;5024670;28;45398;-79
2023/01/28 04:38:40;;;;;;;;;28.75;27.75;;;;;8.01;100.00;102494.19;5014131;28;47267;-79
2023/01/28 04:41:05;;;;;;;;;33.75;24.75;;;;;8.18;100.00;102517.56;5020768;28;45390;-79
2023/01/28 04:43:31;;;;;;;;;36.00;28.00;;;;;8.07;100.00;102531.72;5007785;28;45330;-80
2023/01/28 04:45:56;;;;;;;;;36.75;27.50;;;;;7.89;100.00;102469.66;5023537;28;45660;-80
2023/01/28 04:48:21;;;;;;;;;30.75;26.00;;;;;8.21;100.00;102511.94;5020301;28;46360;-80
2023/01/28 04:50:47;;;;;;;;;33.50;30.50;;;;;8.08;100.00;102494.69;5014104;28;45233;-80
2023/01/28 04:53:12;;;;;;;;;27.75;24.75;;;;;7.96;100.00;102481.88;5010429;28;45398;-81
2023/01/28 04:55:37;;;;;;;;;29.00;27.00;;;;;7.60;100.00;102450.56;5021214;28;45300;-80
2023/01/28 04:58:03;;;;;;;;;33.25;24.75;;;;;8.03;100.00;102540.13;5018018;28;46582;-80
2023/01/28 05:00:29;;;;;;;;;37.75;30.50;;;;;7.91;100.00;102519.16;5013420;28;45454;-80
2023/01/28 05:02:54;;;;;;;;;32.75;29.75;;;;;8.13;100.00;102541.31;5015934;28;45362;-79
2023/01/28 05:05:20;;;;;;;;;30.50;25.50;;;;;7.97;100.00;102507.97;5018625;28;45495;-80
2023/01/28 05:07:56;;;;;;;;;38.50;29.50;;;;;8.14;100.00;102543.06;5006746;28;45245;-79
2023/01/28 05:10:22;;;;;;;;;36.75;26.00;;;;;7.83;100.00;102479.88;5017440;28;45438;-80
2023/01/28 05:12:48;;;;;;;;;29.00;27.75;;;;;7.96;100.00;102522.47;5007008;28;45360;-79
2023/01/28 05:15:18;;;;;;;;;41.50;37.50;;;;;7.96;100.00;102525.19;5034621;28;45637;-80
2023/01/28 05:17:44;;;;;;;;;28.25;22.75;;;;;8.28;100.00;102536.84;5025274;28;45469;-80
2023/01/28 05:20:11;;;;;;;;;41.25;33.50;;;;;7.99;100.00;102500.63;5017788;28;46328;-79
2023/01/28 05:22:37;;;;;;;;;39.75;36.75;;;;;8.14;100.00;102519.56;5020273;28;45943;-78
2023/01/28 05:25:03;;;;;;;;;47.75;38.50;;;;;8.05;100.00;102522.81;5015651;28;46274;-79
2023/01/28 05:27:29;;;;;;;;;37.75;30.75;;;;;8.21;100.00;102533.63;5005137;28;45493;-79
2023/01/28 05:29:54;;;;;;;;;38.50;32.50;;;;;8.06;100.00;102524.56;5013059;28;45371;-79
2023/01/28 05:32:20;;;;;;;;;43.75;30.50;;;;;8.16;100.00;102562.81;5023233;28;45220;-79
2023/01/28 05:34:45;;;;;;;;;47.50;32.50;;;;;7.97;100.00;102500.72;5018576;28;45427;-79
2023/01/28 05:37:10;;;;;;;;;47.25;31.75;;;;;8.07;100.00;102514.59;5036559;28;46557;-79
2023/01/28 05:39:36;;;;;;;;;42.00;35.50;;;;;8.05;100.00;102516.50;5012693;28;45426;-79
2023/01/28 05:42:01;;;;;;;;;42.25;36.25;;;;;7.99;100.00;102515.03;5021255;28;45465;-79
2023/01/28 05:44:26;;;;;;;;;41.50;33.75;;;;;8.04;100.00;102548.13;5016681;28;45473;-78
2023/01/28 05:46:52;;;;;;;;;38.50;27.50;;;;;8.04;100.00;102552.66;5036824;28;47335;-79
2023/01/28 05:49:17;;;;;;;;;49.25;32.25;;;;;8.13;100.00;102535.91;5014007;28;45327;-79
2023/01/28 05:51:43;;;;;;;;;43.25;34.25;;;;;8.10;100.00;102555.91;5014833;28;45625;-79
2023/01/28 05:54:08;;;;;;;;;46.00;35.25;;;;;8.18;100.00;102567.16;5015693;28;45657;-79
2023/01/28 05:56:35;;;;;;;;;47.00;37.50;;;;;8.15;100.00;102564.63;5013621;28;45430;-79
2023/01/28 05:59:01;;;;;;;;;31.25;29.00;;;;;8.16;100.00;102546.56;5030721;28;45442;-79
2023/01/28 06:01:27;;;;;;;;;35.25;29.50;;;;;8.26;100.00;102564.00;5016488;28;45506;-81
2023/01/28 06:03:52;;;;;;;;;40.75;32.00;;;;;8.24;100.00;102555.13;5015422;28;45378;-79
2023/01/28 06:06:18;;;;;;;;;48.00;37.75;;;;;8.30;100.00;102571.00;5023339;28;46202;-79
2023/01/28 06:08:43;;;;;;;;;47.00;34.00;;;;;8.26;100.00;102564.00;5013987;28;45518;-82
2023/01/28 06:11:08;;;;;;;;;33.75;31.00;;;;;8.24;100.00;102565.94;5014385;28;45424;-81
2023/01/28 06:13:34;;;;;;;;;48.50;31.25;;;;;8.19;100.00;102544.53;5031171;28;45528;-79
2023/01/28 06:15:59;;;;;;;;;34.25;29.75;;;;;8.33;100.00;102576.25;5024518;28;46959;-80
2023/01/28 06:18:25;;;;;;;;;39.00;32.50;;;;;8.15;100.00;102583.59;5029784;28;45299;-80
2023/01/28 06:20:51;;;;;;;;;43.25;35.25;;;;;8.14;100.00;102580.97;5018387;28;45468;-80
2023/01/28 06:23:16;;;;;;;;;41.25;35.00;;;;;8.29;100.00;102577.38;5014711;28;45569;-83
2023/01/28 06:25:41;;;;;;;;;40.00;29.00;;;;;8.25;100.00;102566.81;5015219;28;45832;-79
2023/01/28 06:28:07;;;;;;;;;41.25;36.00;;;;;8.23;100.00;102579.56;5021635;28;45492;-82
2023/01/28 06:30:32;;;;;;;;;42.25;29.50;;;;;8.15;100.00;102569.16;5015096;28;45449;-80
2023/01/28 06:32:57;;;;;;;;;43.00;29.75;;;;;8.26;100.00;102555.88;5012754;28;45371;-79
2023/01/28 06:35:23;;;;;;;;;35.00;27.75;;;;;8.44;100.00;102579.22;5021659;28;45747;-79
2023/01/28 06:37:49;;;;;;;;;40.50;34.00;;;;;8.38;100.00;102579.59;5014663;28;45382;-80
2023/01/28 06:40:14;;;;;;;;;37.50;31.75;;;;;8.31;100.00;102596.28;5020845;28;45329;-80
2023/01/28 06:42:40;;;;;;;;;36.50;31.00;;;;;8.28;100.00;102602.69;5016889;28;45371;-80
2023/01/28 06:45:05;;;;;;;;;34.00;29.25;;;;;8.22;100.00;102573.28;5020600;28;47728;-80
2023/01/28 06:47:31;;;;;;;;;38.25;31.00;;;;;8.36;100.00;102586.91;5023092;28;45498;-79
2023/01/28 06:49:56;;;;;;;;;35.25;26.00;;;;;8.35;100.00;102592.41;5019282;28;45276;-81
2023/01/28 06:52:21;;;;;;;;;42.50;34.50;;;;;8.34;100.00;102606.91;5016203;28;45467;-80
2023/01/28 06:54:47;;;;;;;;;33.00;33.00;;;;;8.30;100.00;102614.31;5014705;28;45298;-79
2023/01/28 06:57:12;;;;;;;;;31.25;27.25;;;;;8.18;100.00;102593.38;5016737;28;45324;-79
2023/01/28 06:59:37;;;;;;;;;46.00;30.75;;;;;8.46;100.00;102598.97;5017641;28;45279;-80
2023/01/28 07:02:03;;;;;;;;;36.75;26.50;;;;;8.41;100.00;102598.34;5023783;28;45500;-80
2023/01/28 07:04:28;;;;;;;;;40.50;29.00;;;;;8.46;100.00;102603.50;5011433;28;45900;-80
2023/01/28 07:06:54;;;;;;;;;44.00;30.75;;;;;8.43;100.00;102615.38;5013747;28;45303;-80
2023/01/28 07:09:19;;;;;;;;;41.25;32.00;;;;;8.44;100.00;102616.25;5016583;28;45504;-80
2023/01/28 07:11:44;;;;;;;;;28.75;23.75;;;;;8.54;100.00;102629.19;5014446;28;45486;-80
2023/01/28 07:14:10;;;;;;;;;40.25;31.75;;;;;8.55;100.00;102609.25;5016354;28;48216;-79
2023/01/28 07:16:35;;;;;;;;;34.75;27.75;;;;;8.48;100.00;102615.97;5032731;28;45264;-80
2023/01/28 07:19:01;;;;;;;;;44.00;31.25;;;;;8.55;100.00;102611.06;5034929;28;45668;-79
2023/01/28 07:21:26;;;;;;;;;33.00;27.25;;;;;8.41;100.00;102611.88;5031086;28;45309;-79
2023/01/28 07:23:51;;;;;;;;;38.00;31.00;;;;;8.15;100.00;102616.06;5019813;28;47012;-80
2023/01/28 07:26:18;;;;;;;;;32.25;28.50;;;;;8.31;100.00;102628.78;5014513;28;45440;-79
2023/01/28 07:28:44;;;;;;;;;33.50;27.00;;;;;8.07;100.00;102628.28;5018671;28;45414;-80
2023/01/28 07:31:09;;;;;;;;;31.50;27.00;;;;;8.19;100.00;102638.41;5014044;28;45308;-81
2023/01/28 07:33:35;;;;;;;;;38.50;26.00;;;;;8.12;100.00;102607.25;5012886;28;45423;-81
2023/01/28 07:36:00;;;;;;;;;39.25;33.00;;;;;8.29;100.00;102625.25;5023082;28;45396;-80
2023/01/28 07:38:25;;;;;;;;;42.00;35.25;;;;;8.31;100.00;102621.53;5010632;28;45383;-81
2023/01/28 07:40:51;;;;;;;;;31.25;30.00;;;;;8.49;100.00;102628.56;5036494;28;45687;-79
2023/01/28 07:43:16;;;;;;;;;38.75;29.50;;;;;8.45;100.00;102618.00;5009457;28;46002;-78
2023/01/28 07:45:42;;;;;;;;;41.00;35.25;;;;;8.32;100.00;102631.41;5020649;28;45475;-80
2023/01/28 07:48:10;;;;;;;;;40.25;30.75;;;;;8.27;100.00;102633.44;5007854;28;45550;-79
2023/01/28 07:50:37;;;;;;;;;34.50;24.75;;;;;8.18;100.00;102637.53;5016205;28;45178;-79
2023/01/28 07:53:04;;;;;;;;;34.25;27.50;;;;;7.82;100.00;102618.81;5007771;28;46541;-79
2023/01/28 07:55:30;;;;;;;;;34.25;29.50;;;;;8.05;100.00;102641.91;5012819;28;45450;-79
2023/01/28 07:57:57;;;;;;;;;53.75;39.00;;;;;8.12;100.00;102637.91;5020756;28;45327;-80
2023/01/28 08:00:24;;;;;;;;;43.75;31.50;;;;;8.21;100.00;102628.38;5014208;28;45402;-78
2023/01/28 08:02:55;;;;;;;;;43.75;31.75;;;;;8.21;100.00;102644.63;5014144;28;47346;-78
2023/01/28 08:05:20;;;;;;;;;39.00;32.25;;;;;7.92;100.00;102654.38;5021832;28;45439;-79
2023/01/28 08:07:47;;;;;;;;;42.25;37.00;;;;;8.00;100.00;102629.59;5017043;28;45379;-79
2023/01/28 08:10:14;;;;;;;;;31.25;30.50;;;;;8.21;100.00;102652.75;5020067;28;45276;-78
2023/01/28 08:12:39;;;;;;;;;33.25;29.75;;;;;7.95;100.00;102653.34;5009473;28;45617;-79
2023/01/28 08:15:06;;;;;;;;;40.25;30.00;;;;;8.02;100.00;102650.22;5032553;28;45314;-80
2023/01/28 08:17:31;;;;;;;;;37.00;31.00;;;;;8.21;100.00;102666.28;5015715;28;45508;-80
2023/01/28 08:19:57;;;;;;;;;34.25;28.50;;;;;8.32;100.00;102660.31;5033781;28;45461;-78
2023/01/28 08:22:26;;;;;;;;;38.25;31.00;;;;;8.21;100.00;102647.34;5012546;28;47902;-79
2023/01/28 08:24:52;;;;;;;;;34.75;33.75;;;;;8.35;100.00;102661.00;5017985;28;45215;-80
2023/01/28 08:27:17;;;;;;;;;37.75;31.50;;;;;8.32;100.00;102661.19;5012560;28;45413;-80
2023/01/28 08:29:42;;;;;;;;;27.75;22.00;;;;;8.12;100.00;102651.44;5012701;28;45416;-80
2023/01/28 08:32:09;;;;;;;;;29.25;26.00;;;;;8.23;100.00;102658.09;5021639;28;46241;-79
2023/01/28 08:34:34;;;;;;;;;34.25;27.00;;;;;8.38;100.00;102671.66;5033141;28;45323;-78
2023/01/28 08:36:59;;;;;;;;;34.75;26.25;;;;;8.46;100.00;102669.41;5014482;28;45409;-78
2023/01/28 08:39:25;;;;;;;;;36.75;28.75;;;;;8.46;100.00;102688.38;5018695;28;45495;-79
2023/01/28 08:41:50;;;;;;;;;30.50;26.25;;;;;8.37;100.00;102683.47;5018128;28;46458;-79
2023/01/28 08:44:16;;;;;;;;;34.00;25.50;;;;;8.30;100.00;102665.78;5015530;28;45354;-80
2023/01/28 08:46:41;;;;;;;;;41.00;39.00;;;;;8.68;100.00;102692.53;5013644;28;46377;-79
2023/01/28 08:49:06;;;;;;;;;27.75;26.25;;;;;8.55;100.00;102666.13;5030660;28;45326;-78
2023/01/28 08:51:32;;;;;;;;;39.00;27.25;;;;;8.41;100.00;102692.28;5017666;28;47333;-79
2023/01/28 08:53:57;;;;;;;;;31.75;24.50;;;;;8.40;100.00;102677.84;5015614;28;45869;-79
2023/01/28 08:56:22;;;;;;;;;28.50;23.00;;;;;8.29;100.00;102707.34;5011819;28;45691;-78
2023/01/28 08:58:48;;;;;;;;;35.50;30.75;;;;;8.54;100.00;102696.94;5018224;28;45425;-79
2023/01/28 09:01:13;;;;;;;;;29.00;25.50;;;;;8.35;100.00;102703.47;5010807;28;47165;-79
2023/01/28 09:03:38;;;;;;;;;34.25;26.50;;;;;8.54;100.00;102707.75;5012483;28;45288;-79
2023/01/28 09:06:04;;;;;;;;;34.00;26.00;;;;;8.38;100.00;102704.16;5023437;28;45319;-79
2023/01/28 09:08:30;;;;;;;;;26.75;23.75;;;;;8.22;100.00;102703.25;5015875;28;45683;-79
2023/01/28 09:10:57;;;;;;;;;35.50;30.75;;;;;8.41;100.00;102712.09;5011025;28;48246;-79
2023/01/28 09:13:23;;;;;;;;;39.00;31.75;;;;;8.49;100.00;102717.09;5012593;28;45445;-79
2023/01/28 09:15:50;;;;;;;;;40.75;28.00;;;;;8.43;100.00;102718.31;5012932;28;45336;-79
2023/01/28 09:18:16;;;;;;;;;40.50;32.25;;;;;8.54;100.00;102709.59;5012651;28;45368;-79
2023/01/28 09:20:41;;;;;;;;;44.75;28.25;;;;;8.52;100.00;102700.69;5030611;28;46882;-80
2023/01/28 09:23:08;;;;;;;;;38.00;31.25;;;;;8.54;100.00;102718.59;5006179;28;45624;-83
2023/01/28 09:25:35;;;;;;;;;32.25;27.50;;;;;8.62;100.00;102699.16;5021388;28;45426;-79
2023/01/28 09:28:00;;;;;;;;;38.00;33.25;;;;;8.64;100.00;102709.94;5012342;28;45455;-80
2023/01/28 09:30:27;;;;;;;;;31.25;28.00;;;;;8.71;100.00;102723.03;5010130;28;45518;-79
2023/01/28 09:32:54;;;;;;;;;36.75;30.25;;;;;8.79;100.00;102711.75;5005260;28;45565;-79
2023/01/28 09:35:20;;;;;;;;;42.00;35.00;;;;;8.84;100.00;102717.81;5013826;28;45298;-79
2023/01/28 09:37:45;;;;;;;;;38.25;33.00;;;;;8.89;100.00;102727.41;5021028;28;45410;-79
2023/01/28 09:40:30;;;;;;;;;45.75;31.00;;;;;8.70;100.00;102728.53;5024827;28;46635;-77
2023/01/28 09:43:01;;;;;;;;;37.75;29.25;;;;;8.79;100.00;102725.31;5015466;28;45201;-78
2023/01/28 09:45:31;;;;;;;;;34.75;28.75;;;;;8.87;100.00;102725.72;5013870;28;45268;-78
2023/01/28 09:47:59;;;;;;;;;34.75;31.50;;;;;8.90;100.00;102725.56;5006655;28;45411;-78
2023/01/28 09:50:37;;;;;;;;;35.75;29.25;;;;;8.98;100.00;102726.84;5012454;28;45526;-78
2023/01/28 09:53:14;;;;;;;;;29.25;24.25;;;;;8.91;100.00;102730.03;5008866;28;45390;-79
2023/01/28 09:55:45;;;;;;;;;35.00;31.00;;;;;8.65;100.00;102706.25;5017767;28;45418;-79
2023/01/28 09:58:14;;;;;;;;;29.75;27.75;;;;;8.66;100.00;102726.97;5008091;28;45379;-78
2023/01/28 10:00:50;;;;;;;;;30.00;27.75;;;;;8.84;100.00;102721.34;5013007;28;45542;-79
2023/01/28 10:03:46;;;;;;;;;39.00;27.50;;;;;8.87;100.00;102734.75;5009755;28;45413;-81
2023/01/28 10:06:23;;;;;;;;;33.50;25.75;;;;;8.78;100.00;102735.25;5016278;28;45374;-77
2023/01/28 10:09:07;;;;;;;;;33.00;26.75;;;;;8.71;100.00;102743.84;5018664;28;45483;-78
2023/01/28 10:12:05;;;;;;;;;30.75;27.50;;;;;8.47;100.00;102735.28;5016998;28;46379;-77
2023/01/28 10:14:54;;;;;;;;;26.75;21.75;;;;;8.55;100.00;102739.28;5017460;28;45438;-79
2023/01/28 10:17:33;;;;;;;;;22.00;18.25;;;;;8.52;100.00;102727.75;5010758;28;45410;-77
2023/01/28 10:20:15;;;;;;;;;29.75;27.50;;;;;8.81;100.00;102739.66;5018397;28;45449;-79
2023/01/28 10:22:49;;;;;;;;;28.25;26.25;;;;;8.92;100.00;102748.00;5016209;28;46353;-79
2023/01/28 10:25:19;;;;;;;;;28.25;24.25;;;;;8.84;100.00;102740.31;5012057;28;45478;-79
2023/01/28 10:27:46;;;;;;;;;42.75;33.50;;;;;8.74;100.00;102754.50;5013717;28;45308;-80
2023/01/28 10:30:24;;;;;;;;;32.25;26.00;;;;;8.89;100.00;102754.50;5017275;28;45229;-80
2023/01/28 10:33:30;;;;;;;;;29.50;27.50;;;;;8.61;100.00;102753.47;5010593;28;45454;-79
2023/01/28 10:35:56;;;;;;;;;27.00;25.50;;;;;8.53;100.00;102756.63;5014610;28;45223;-79
2023/01/28 10:38:24;;;;;;;;;34.75;27.50;;;;;8.53;100.00;102762.91;5004885;28;45381;-79
2023/01/28 10:40:50;;;;;;;;;32.75;25.75;;;;;8.53;100.00;102767.44;5009496;28;45474;-80
2023/01/28 10:43:21;;;;;;;;;49.75;34.75;;;;;8.40;100.00;102761.81;5012657;28;47328;-80
2023/01/28 10:46:03;;;;;;;;;42.25;31.50;;;;;8.63;100.00;102762.34;5014899;28;45262;-80
2023/01/28 10:48:34;;;;;;;;;33.25;30.00;;;;;8.62;100.00;102776.91;5018695;28;45341;-79
2023/01/28 10:51:05;;;;;;;;;34.25;26.50;;;;;8.63;100.00;102763.25;5016126;28;45678;-79
2023/01/28 10:53:34;;;;;;;;;30.00;22.25;;;;;8.51;100.00;102758.53;5016070;28;45447;-78
2023/01/28 10:56:03;;;;;;;;;37.75;27.50;;;;;8.45;100.00;102770.59;5036736;28;45362;-79
2023/01/28 10:58:33;;;;;;;;;35.75;29.00;;;;;8.36;100.00;102770.22;5016363;28;45541;-79
2023/01/28 11:01:06;;;;;;;;;26.50;25.25;;;;;8.42;100.00;102753.63;5010774;28;45319;-79
2023/01/28 11:03:34;;;;;;;;;31.75;27.50;;;;;8.59;100.00;102742.72;5008263;28;45409;-79
2023/01/28 11:06:01;;;;;;;;;40.50;31.75;;;;;8.63;100.00;102765.06;5008534;28;45526;-78
2023/01/28 11:08:29;;;;;;;;;34.25;28.00;;;;;8.70;100.00;102763.75;5029537;28;45560;-80
2023/01/28 11:10:56;;;;;;;;;36.25;27.00;;;;;8.62;100.00;102756.06;5033055;28;45330;-79
2023/01/28 11:13:27;;;;;;;;;29.50;15.75;;;;;8.28;100.00;102757.06;5014819;28;45330;-79
2023/01/28 11:15:54;;;;;;;;;28.75;24.25;;;;;8.50;100.00;102757.66;5031730;28;45895;-80
2023/01/28 11:18:53;;;;;;;;;27.00;24.50;;;;;8.62;100.00;102756.06;5006782;28;45445;-79
2023/01/28 11:21:23;;;;;;;;;40.00;28.75;;;;;8.52;100.00;102750.31;5017429;28;45473;-79
2023/01/28 11:24:26;;;;;;;;;31.00;28.75;;;;;8.42;100.00;102754.50;5020505;28;46638;-79
2023/01/28 11:26:54;;;;;;;;;30.50;28.00;;;;;8.47;100.00;102744.28;5010576;28;45442;-79
2023/01/28 11:29:46;;;;;;;;;35.50;31.50;;;;;8.72;100.00;102740.16;5014880;28;45384;-80
2023/01/28 11:32:20;;;;;;;;;47.50;33.50;;;;;8.46;100.00;102730.81;5013141;28;45536;-80
2023/01/28 11:34:52;;;;;;;;;30.75;26.25;;;;;8.27;100.00;102728.22;5016146;28;45726;-80
2023/01/28 11:37:21;;;;;;;;;36.50;27.75;;;;;8.64;100.00;102747.84;5009266;28;45458;-79
2023/01/28 11:39:48;;;;;;;;;36.25;30.75;;;;;8.36;100.00;102737.72;5013285;28;45384;-79
2023/01/28 11:42:17;;;;;;;;;38.00;31.00;;;;;8.55;100.00;102742.00;5016657;28;45522;-80
2023/01/28 11:44:43;;;;;;;;;29.00;27.50;;;;;8.21;100.00;102696.94;5016793;28;47228;-80
2023/01/28 11:47:47;;;;;;;;;33.00;28.50;;;;;8.55;100.00;102730.28;5018046;28;45251;-79
2023/01/28 11:50:45;;;;;;;;;42.00;32.75;;;;;8.71;100.00;102727.56;5020266;28;45404;-78